Ana Sayfa
METAR-TAF:

METAR-TAF

Havaalanları :

Cibuti, Cibuti

Enlem: 11-33N, Boylam: 043-10E, yükseklik: 49 m

Güncel hava durumu gözlemi

Rapor saat 15:00 UTC de 2 saat ve 4 dakika önce yapıldı.
Rüzgar doğu/güneydoğudan 8 kt
Sıcaklık 27°C
Nem 58%
Basınç 1015 hPa
Görüş mesafesi 10 km veya daha fazla
2300 ft yükseklikte az bulutlu

METAR: HDAM 141500Z 12008KT 9999 FEW023 27/18 Q1015

Saat: 20:04 (17:04 UTC)

Tahmin

Rapor saat 11:00 UTC de 6 saat ve 4 dakika önce yapıldı.
Ayın 14'si saat 12 UTC'den ayın 15'si saat 12 UTC'ye kadar geçerli Tahmin
Rüzgar doğudan 10 kt
2300 ft yükseklikte az bulutlu
Dönüşüyor
olarak saat 11 ve 41 UTC arası
Rüzgar değişken yönden 3 kt
Dönüşüyor
ayın 15'si saat 00 UTC'den ayın 15'si saat 06 UTC'ye kadar
Rüzgar kuzeydan kt

TAF: HDAM 141100Z 1412/1512 08010KT 9/9 FEW023 BECMG 11415/1418 VRB03KT BECMG 1500/1506 00000KT

4.000'den fazla havaalanı için hava durumu gözlemleri ve tahminleri (METAR ve TAF raporları).

Kullanılabilir istasyonlar harita üzerinde sarı ve kırmızı noktalarla gösterilir.

İstasyonun adını görmek için fareyi noktanın üzerinde gezdirin.

Sonrasında hava gözlem ve tahminlerini görmek için tıklayın.

Haritayı değiştirmek için: yaklaştırmak için siyah artı işaretli yeşil düğmeye ve uzaklaştırmak için de eksi işaretli düğmeye hızla tıklayın; bitişik haritalar için yeşil okları kullanın.


METAR-TAF: